Hope, Canada
Current Conditions -  °F | °C
As of 2:23 AM on Thursday 23 Oct 2014 (Local Time) from CYHE Reporting Station
Moderate Rain Moderate Rain  
Wind Chill: 54°   Ceiling: 4500
Heat Index: 54°   Visibility: 6mi
Dew Point: 48°   Wind: 10mph
Humidity: 82%   Direction: 290°WNW
Pressure: 29.65"   Gusts: 28mph
Location:  49.36°N, 121.5°W
Report Text: CYHE 230923Z AUTO 29009G24KT 6SM RA OVC045 12/09 A2965 RMK PRESRR PCPN 2.2MM PAST HR SLP042
Loading
Personal Weather Stations






























Interactive Weather Map
Tropical Storm Tracking
New forecast layout! Learn more

10-Day Weather Forecast

Advertisements
Track Severe Weather on mobile